Time;durP1;ratioP1;P1;durP2;ratioP2;P2;SDS_P1;SDS_P2;PMS_P1;PMS_P2;Temp;Humidity;BMP_temperature;BMP_pressure;BME280_temperature;BME280_humidity;BME280_pressure;Samples;Min_cycle;Max_cycle;Signal;HPM_P1;HPM_P2
2021/05/30 00:01:25;;;;;;;29.10;8.70;;;11.90;99.90;;;;;;5135675;27;20058;-85
2021/05/30 00:03:52;;;;;;;19.15;8.40;;;11.90;99.90;;;;;;5122759;27;20035;-86
2021/05/30 00:06:18;;;;;;;23.60;8.43;;;11.90;99.90;;;;;;5146181;27;20034;-86
2021/05/30 00:08:44;;;;;;;26.58;9.13;;;12.00;99.90;;;;;;5137247;27;20035;-86
2021/05/30 00:11:12;;;;;;;24.73;9.45;;;11.90;99.90;;;;;;5135405;27;20038;-86
2021/05/30 00:13:44;;;;;;;21.38;8.88;;;11.90;99.90;;;;;;5120333;27;20031;-83
2021/05/30 00:16:13;;;;;;;23.73;9.27;;;12.00;99.90;;;;;;5118191;27;20439;-83
2021/05/30 00:18:39;;;;;;;25.80;9.43;;;11.50;99.90;;;;;;5121314;27;20509;-83
2021/05/30 00:21:07;;;;;;;23.33;9.38;;;11.80;99.90;;;;;;5145516;27;20035;-83
2021/05/30 00:23:36;;;;;;;29.52;10.38;;;12.50;99.90;;;;;;5115455;28;20425;-83
2021/05/30 00:26:02;;;;;;;25.00;10.00;;;11.70;99.90;;;;;;5126838;27;20042;-83
2021/05/30 00:28:27;;;;;;;22.08;9.80;;;11.70;99.90;;;;;;5121430;27;20479;-83
2021/05/30 00:30:54;;;;;;;25.00;11.25;;;11.70;99.90;;;;;;5120566;28;20066;-84
2021/05/30 00:33:20;;;;;;;20.23;9.75;;;11.70;99.90;;;;;;5114557;28;20035;-80
2021/05/30 00:35:46;;;;;;;19.58;9.57;;;11.60;99.90;;;;;;5144117;27;20439;-80
2021/05/30 00:38:14;;;;;;;22.92;11.18;;;11.70;99.90;;;;;;5118184;27;20061;-80
2021/05/30 00:40:46;;;;;;;23.23;11.98;;;11.60;99.90;;;;;;5140918;27;20042;-80
2021/05/30 00:43:23;;;;;;;21.00;10.50;;;11.60;99.90;;;;;;5134004;27;20155;-80
2021/05/30 00:45:58;;;;;;;22.25;10.98;;;11.70;99.90;;;;;;5124333;28;20035;-80
2021/05/30 00:48:24;;;;;;;18.58;11.20;;;11.70;99.90;;;;;;5138338;27;20038;-80
2021/05/30 00:50:50;;;;;;;22.80;10.85;;;11.70;99.90;;;;;;5127384;27;20042;-80
2021/05/30 00:53:18;;;;;;;26.00;10.65;;;11.80;99.90;;;;;;5117880;27;20039;-80
2021/05/30 00:55:45;;;;;;;25.73;10.05;;;11.70;99.90;;;;;;5153999;27;20531;-80
2021/05/30 00:58:13;;;;;;;20.33;10.60;;;12.10;99.90;;;;;;5139932;27;20031;-80
2021/05/30 01:00:39;;;;;;;24.83;10.80;;;12.20;99.90;;;;;;5137024;27;20035;-80
2021/05/30 01:03:04;;;;;;;22.15;10.82;;;11.60;99.90;;;;;;5114845;27;20059;-80
2021/05/30 01:05:31;;;;;;;22.13;10.93;;;11.60;99.90;;;;;;5128912;27;20042;-80
2021/05/30 01:07:58;;;;;;;22.33;11.63;;;11.50;99.90;;;;;;5124426;27;20039;-80
2021/05/30 01:10:28;;;;;;;25.13;11.40;;;11.60;99.90;;;;;;5123284;27;20104;-82
2021/05/30 01:12:59;;;;;;;27.90;10.70;;;11.60;99.90;;;;;;5136040;27;20073;-82
2021/05/30 01:15:27;;;;;;;27.48;11.32;;;11.60;99.90;;;;;;5131866;27;20031;-82
2021/05/30 01:17:57;;;;;;;24.92;10.90;;;11.40;99.90;;;;;;5109986;27;20099;-82
2021/05/30 01:20:32;;;;;;;24.17;11.20;;;11.60;99.90;;;;;;5103249;27;20039;-82
2021/05/30 01:23:18;;;;;;;21.95;10.48;;;11.50;99.90;;;;;;5128223;27;20135;-82
2021/05/30 01:25:46;;;;;;;22.45;10.68;;;11.60;99.90;;;;;;5130805;27;20045;-82
2021/05/30 01:28:15;;;;;;;26.30;10.10;;;11.70;99.90;;;;;;5135897;27;20039;-82
2021/05/30 01:30:42;;;;;;;24.08;11.20;;;11.60;99.90;;;;;;5117423;27;20189;-82
2021/05/30 01:33:11;;;;;;;23.10;10.57;;;11.70;99.90;;;;;;5135567;27;20042;-82
2021/05/30 01:35:37;;;;;;;18.75;9.00;;;11.70;99.90;;;;;;5135541;27;20047;-81
2021/05/30 01:38:06;;;;;;;22.90;9.55;;;11.70;99.90;;;;;;5085119;27;20370;-81
2021/05/30 01:40:32;;;;;;;19.80;9.80;;;11.70;99.90;;;;;;5116594;27;20088;-82
2021/05/30 01:42:58;;;;;;;24.23;10.43;;;11.10;99.90;;;;;;5133445;27;20047;-82
2021/05/30 01:45:28;;;;;;;24.30;9.82;;;11.60;99.90;;;;;;5117200;27;20042;-79
2021/05/30 01:47:54;;;;;;;26.70;9.90;;;11.60;99.90;;;;;;5117518;27;20042;-79
2021/05/30 01:50:25;;;;;;;19.25;9.40;;;11.70;99.90;;;;;;5117390;27;20027;-79
2021/05/30 01:52:52;;;;;;;24.65;10.52;;;11.30;99.90;;;;;;5135931;27;20031;-80
2021/05/30 01:55:29;;;;;;;22.33;9.70;;;11.70;99.90;;;;;;5117643;27;20558;-81
2021/05/30 01:57:57;;;;;;;20.58;10.10;;;12.20;99.90;;;;;;5143978;27;20038;-80
2021/05/30 02:00:26;;;;;;;23.55;9.65;;;11.70;99.90;;;;;;5135264;27;20138;-80
2021/05/30 02:03:01;;;;;;;21.90;9.98;;;11.70;99.90;;;;;;5121641;27;20087;-80
2021/05/30 02:05:27;;;;;;;27.33;9.73;;;11.70;99.90;;;;;;5119869;27;20431;-80
2021/05/30 02:07:53;;;;;;;21.88;9.95;;;11.70;99.90;;;;;;5143105;27;20046;-80
2021/05/30 02:10:21;;;;;;;20.88;10.27;;;11.50;99.90;;;;;;5118366;27;20058;-81
2021/05/30 02:13:05;;;;;;;23.90;11.00;;;11.60;99.90;;;;;;5125829;27;20043;-80
2021/05/30 02:15:35;;;;;;;23.02;10.18;;;11.60;99.90;;;;;;5119619;27;20045;-81
2021/05/30 02:18:01;;;;;;;20.30;9.15;;;11.60;99.90;;;;;;5135000;27;20395;-81
2021/05/30 02:20:41;;;;;;;23.50;10.65;;;11.60;99.90;;;;;;5117060;27;20059;-81
2021/05/30 02:23:16;;;;;;;24.67;11.00;;;11.60;99.90;;;;;;5094642;27;20049;-81
2021/05/30 02:25:44;;;;;;;24.90;10.38;;;11.60;99.90;;;;;;5100013;27;20095;-81
2021/05/30 02:28:11;;;;;;;22.08;9.75;;;11.60;99.90;;;;;;5128015;27;20150;-81
2021/05/30 02:30:46;;;;;;;20.45;9.70;;;11.60;99.90;;;;;;5132549;27;20115;-82
2021/05/30 02:33:19;;;;;;;20.98;9.60;;;11.50;99.90;;;;;;5107779;27;20058;-82
2021/05/30 02:35:46;;;;;;;23.67;9.50;;;11.60;99.90;;;;;;5093106;27;20047;-82
2021/05/30 02:38:15;;;;;;;19.38;9.02;;;11.50;99.90;;;;;;5134608;27;20057;-82
2021/05/30 02:40:51;;;;;;;19.67;9.00;;;11.20;99.90;;;;;;5097223;27;20466;-82
2021/05/30 02:43:23;;;;;;;22.88;9.23;;;11.50;99.90;;;;;;5098321;27;20505;-82
2021/05/30 02:45:54;;;;;;;21.50;8.73;;;11.50;99.90;;;;;;5096269;27;20053;-80
2021/05/30 02:48:20;;;;;;;23.75;8.43;;;11.50;99.90;;;;;;5153734;27;20039;-80
2021/05/30 02:50:57;;;;;;;26.35;9.02;;;11.40;99.90;;;;;;5153064;27;20046;-80
2021/05/30 02:53:24;;;;;;;22.90;9.10;;;11.40;99.90;;;;;;5135700;27;20042;-80
2021/05/30 02:55:50;;;;;;;23.63;8.80;;;11.40;99.90;;;;;;5136396;27;20109;-80
2021/05/30 02:58:15;;;;;;;22.10;8.48;;;11.40;99.90;;;;;;5146451;27;20113;-80
2021/05/30 03:00:41;;;;;;;26.42;8.60;;;11.50;99.90;;;;;;5154709;27;20425;-80
2021/05/30 03:03:10;;;;;;;20.98;8.32;;;11.50;99.90;;;;;;5134654;27;20039;-80
2021/05/30 03:05:36;;;;;;;21.25;8.35;;;11.50;99.90;;;;;;5135461;27;20038;-80
2021/05/30 03:08:02;;;;;;;23.50;8.43;;;11.50;99.90;;;;;;5136126;27;20414;-80
2021/05/30 03:10:34;;;;;;;21.38;9.05;;;11.50;99.90;;;;;;5135291;27;20035;-81
2021/05/30 03:13:00;;;;;;;23.67;9.68;;;11.50;99.90;;;;;;5118185;27;20092;-82
2021/05/30 03:15:33;;;;;;;26.60;9.43;;;11.30;99.90;;;;;;5152946;27;20410;-82
2021/05/30 03:18:03;;;;;;;18.75;7.93;;;11.50;99.90;;;;;;5119664;27;20035;-80
2021/05/30 03:20:29;;;;;;;18.17;8.85;;;11.50;99.90;;;;;;5152443;27;20110;-80
2021/05/30 03:22:55;;;;;;;20.83;8.68;;;11.50;99.90;;;;;;5134744;27;20042;-80
2021/05/30 03:25:21;;;;;;;22.33;9.25;;;11.80;99.90;;;;;;5135732;27;20054;-80
2021/05/30 03:27:49;;;;;;;19.38;8.68;;;11.60;99.90;;;;;;5136009;27;20035;-80
2021/05/30 03:30:15;;;;;;;24.70;9.95;;;11.60;99.90;;;;;;5154199;27;20042;-80
2021/05/30 03:32:42;;;;;;;25.98;9.27;;;11.60;99.90;;;;;;5153652;27;20041;-80
2021/05/30 03:35:08;;;;;;;21.52;9.35;;;11.80;99.90;;;;;;5154149;27;20047;-80
2021/05/30 03:37:34;;;;;;;19.58;9.25;;;11.50;99.90;;;;;;5145089;27;20037;-82
2021/05/30 03:40:06;;;;;;;26.52;9.68;;;11.90;99.90;;;;;;5134738;27;20104;-80
2021/05/30 03:42:36;;;;;;;18.00;8.30;;;11.50;99.90;;;;;;5135946;27;20034;-81
2021/05/30 03:45:04;;;;;;;22.38;9.10;;;11.50;99.90;;;;;;5135705;27;20103;-81
2021/05/30 03:47:30;;;;;;;20.70;9.75;;;11.50;99.90;;;;;;5148896;27;20039;-81
2021/05/30 03:49:58;;;;;;;21.77;8.93;;;11.50;99.90;;;;;;5135757;27;20505;-81
2021/05/30 03:52:28;;;;;;;23.73;9.10;;;11.50;99.90;;;;;;5117159;27;20683;-81
2021/05/30 03:54:54;;;;;;;25.98;9.77;;;11.50;99.90;;;;;;5118539;27;20054;-81
2021/05/30 03:57:20;;;;;;;27.38;9.60;;;11.50;99.90;;;;;;5134647;27;20058;-81
2021/05/30 03:59:50;;;;;;;27.08;9.52;;;11.50;99.90;;;;;;5153215;27;20030;-82
2021/05/30 04:02:23;;;;;;;22.38;9.40;;;11.60;99.90;;;;;;5152216;27;20034;-82
2021/05/30 04:04:54;;;;;;;20.95;8.90;;;11.40;99.90;;;;;;5136569;27;20038;-82
2021/05/30 04:07:26;;;;;;;25.13;8.70;;;11.60;99.90;;;;;;5151384;27;20042;-82
2021/05/30 04:09:54;;;;;;;24.30;8.90;;;11.30;99.90;;;;;;5135565;27;20371;-82
2021/05/30 04:12:20;;;;;;;26.98;9.70;;;11.40;99.90;;;;;;5153014;27;20517;-78
2021/05/30 04:14:46;;;;;;;26.60;9.98;;;11.40;99.90;;;;;;5133693;27;20058;-80
2021/05/30 04:17:12;;;;;;;21.05;9.30;;;11.40;99.90;;;;;;5135483;27;20038;-80
2021/05/30 04:19:40;;;;;;;25.60;9.45;;;11.40;99.90;;;;;;5135530;27;20042;-79
2021/05/30 04:22:06;;;;;;;25.13;9.90;;;11.40;99.90;;;;;;5121132;27;20113;-79
2021/05/30 04:24:32;;;;;;;23.65;9.93;;;11.40;99.90;;;;;;5153757;27;20545;-79
2021/05/30 04:26:58;;;;;;;19.98;9.75;;;11.40;99.90;;;;;;5102463;28;20503;-79
2021/05/30 04:29:23;;;;;;;25.75;9.63;;;11.40;99.90;;;;;;5123833;27;20039;-79
2021/05/30 04:31:50;;;;;;;26.30;10.40;;;11.40;99.90;;;;;;5100481;27;20035;-79
2021/05/30 04:34:17;;;;;;;20.02;8.88;;;11.40;99.90;;;;;;5153211;27;20042;-78
2021/05/30 04:36:42;;;;;;;25.33;9.57;;;11.40;99.90;;;;;;5157369;27;20424;-78
2021/05/30 04:39:11;;;;;;;24.77;9.82;;;11.70;99.90;;;;;;5157517;27;20030;-84
2021/05/30 04:41:50;;;;;;;27.15;9.75;;;11.50;99.90;;;;;;5138655;27;20043;-82
2021/05/30 04:44:20;;;;;;;24.90;10.30;;;11.40;99.90;;;;;;5115616;27;20060;-82
2021/05/30 04:46:48;;;;;;;21.50;9.27;;;11.40;99.90;;;;;;5129970;27;20428;-81
2021/05/30 04:49:18;;;;;;;28.45;10.40;;;11.40;99.90;;;;;;5140034;27;20038;-81
2021/05/30 04:51:52;;;;;;;22.27;9.88;;;11.40;99.90;;;;;;5124964;27;20061;-81
2021/05/30 04:54:21;;;;;;;26.48;10.13;;;11.30;99.90;;;;;;5122866;27;20034;-80
2021/05/30 04:56:47;;;;;;;19.77;10.10;;;11.30;99.90;;;;;;5139367;27;20046;-81
2021/05/30 04:59:13;;;;;;;23.13;10.45;;;11.30;99.90;;;;;;5139839;27;20031;-81
2021/05/30 05:01:39;;;;;;;27.13;10.95;;;11.30;99.90;;;;;;5148218;27;20478;-81
2021/05/30 05:04:05;;;;;;;24.55;10.38;;;11.30;99.90;;;;;;5130870;27;20031;-82
2021/05/30 05:06:31;;;;;;;25.08;10.57;;;11.30;99.90;;;;;;5138932;27;20030;-81
2021/05/30 05:08:57;;;;;;;25.88;10.27;;;11.60;99.90;;;;;;5139705;27;20047;-81
2021/05/30 05:11:23;;;;;;;28.27;10.02;;;11.30;99.90;;;;;;5139645;27;20038;-81
2021/05/30 05:13:48;;;;;;;19.42;10.38;;;11.40;99.90;;;;;;5138907;27;20042;-81
2021/05/30 05:16:17;;;;;;;26.08;11.73;;;11.40;99.90;;;;;;5117228;27;20058;-81
2021/05/30 05:18:43;;;;;;;26.80;11.65;;;11.50;99.90;;;;;;5124045;27;20079;-81
2021/05/30 05:21:09;;;;;;;26.60;11.93;;;11.50;99.90;;;;;;5135930;27;20470;-81
2021/05/30 05:23:35;;;;;;;25.27;11.18;;;11.50;99.90;;;;;;5138331;27;20406;-81
2021/05/30 05:26:03;;;;;;;30.85;12.00;;;11.60;99.90;;;;;;5137300;27;20038;-81
2021/05/30 05:28:30;;;;;;;23.30;11.07;;;11.60;99.90;;;;;;5138079;27;20034;-81
2021/05/30 05:30:56;;;;;;;20.70;10.45;;;11.70;99.90;;;;;;5156599;27;20053;-81
2021/05/30 05:33:23;;;;;;;26.17;10.95;;;11.70;99.90;;;;;;5136341;27;20103;-81
2021/05/30 05:35:52;;;;;;;25.52;10.38;;;11.70;99.90;;;;;;5132515;27;20126;-82
2021/05/30 05:38:25;;;;;;;23.70;10.95;;;11.70;99.90;;;;;;5131371;27;20068;-81
2021/05/30 05:41:07;;;;;;;20.63;10.35;;;11.30;99.90;;;;;;5121532;27;20041;-82
2021/05/30 05:43:36;;;;;;;26.88;10.88;;;11.70;99.90;;;;;;5133563;27;20043;-81
2021/05/30 05:46:05;;;;;;;23.67;10.63;;;11.90;99.90;;;;;;5135629;27;20081;-81
2021/05/30 05:48:31;;;;;;;24.08;10.52;;;12.00;99.90;;;;;;5131034;27;20071;-81
2021/05/30 05:50:57;;;;;;;25.13;11.20;;;12.20;99.90;;;;;;5134157;27;20521;-80
2021/05/30 05:53:25;;;;;;;21.20;10.35;;;12.30;99.90;;;;;;5134544;27;20047;-80
2021/05/30 05:55:54;;;;;;;23.60;12.02;;;12.40;99.90;;;;;;5133489;27;20038;-81
2021/05/30 05:58:20;;;;;;;20.00;10.82;;;12.50;99.90;;;;;;5121513;27;20066;-84
2021/05/30 06:00:46;;;;;;;25.83;12.30;;;12.50;99.90;;;;;;5134185;27;20035;-81
2021/05/30 06:03:12;;;;;;;22.27;12.57;;;12.40;99.90;;;;;;5134467;27;20035;-81
2021/05/30 06:05:41;;;;;;;30.67;15.32;;;12.50;99.90;;;;;;5135316;27;20043;-81
2021/05/30 06:08:07;;;;;;;34.15;16.48;;;12.50;99.90;;;;;;5124616;27;20110;-81
2021/05/30 06:10:38;;;;;;;26.33;17.95;;;12.30;99.90;;;;;;5119973;27;20030;-82
2021/05/30 06:13:23;;;;;;;30.55;18.75;;;12.30;99.90;;;;;;5112990;27;20147;-82
2021/05/30 06:16:05;;;;;;;34.35;18.55;;;12.50;99.90;;;;;;5123825;27;20035;-82
2021/05/30 06:18:43;;;;;;;34.65;19.13;;;12.50;99.90;;;;;;5132811;27;20495;-82
2021/05/30 06:21:24;;;;;;;37.20;19.40;;;12.60;99.90;;;;;;5120382;27;20070;-82
2021/05/30 06:23:55;;;;;;;29.35;19.65;;;12.70;99.90;;;;;;5127383;27;20075;-82
2021/05/30 06:26:21;;;;;;;31.50;19.48;;;12.70;99.90;;;;;;5129758;27;20034;-81
2021/05/30 06:28:54;;;;;;;37.33;19.42;;;12.70;99.90;;;;;;5116499;27;20102;-83
2021/05/30 06:31:36;;;;;;;33.17;19.65;;;12.70;99.90;;;;;;5122340;27;20027;-82
2021/05/30 06:34:04;;;;;;;31.40;18.45;;;12.70;99.90;;;;;;5135124;27;20038;-82
2021/05/30 06:36:33;;;;;;;28.55;18.58;;;12.70;99.90;;;;;;5116428;27;20039;-83
2021/05/30 06:38:59;;;;;;;34.05;19.08;;;12.90;99.90;;;;;;5128325;27;20051;-89
2021/05/30 06:41:30;;;;;;;29.17;16.70;;;13.00;99.90;;;;;;5154817;27;20030;-80
2021/05/30 06:43:56;;;;;;;28.35;16.50;;;12.80;99.90;;;;;;5149904;27;20041;-81
2021/05/30 06:46:24;;;;;;;24.95;14.90;;;12.80;99.90;;;;;;5154483;27;20035;-78
2021/05/30 06:48:52;;;;;;;27.17;15.82;;;12.90;99.90;;;;;;5155393;27;20039;-79
2021/05/30 06:51:22;;;;;;;29.27;15.40;;;12.90;99.90;;;;;;5155094;27;20035;-84
2021/05/30 06:53:49;;;;;;;23.17;16.10;;;12.90;99.90;;;;;;5153367;27;20114;-81
2021/05/30 06:56:16;;;;;;;30.10;16.63;;;12.80;99.90;;;;;;5148680;27;20087;-79
2021/05/30 06:58:43;;;;;;;27.67;15.25;;;12.90;99.90;;;;;;5118840;27;20474;-81
2021/05/30 07:01:09;;;;;;;25.98;15.35;;;12.90;99.90;;;;;;5144125;27;20030;-82
2021/05/30 07:03:35;;;;;;;31.88;16.60;;;12.80;99.90;;;;;;5140982;27;20592;-80
2021/05/30 07:06:01;;;;;;;30.83;15.32;;;13.40;99.90;;;;;;5142588;27;20066;-78
2021/05/30 07:08:31;;;;;;;26.65;16.25;;;12.80;99.90;;;;;;5127513;27;20458;-77
2021/05/30 07:10:57;;;;;;;22.27;14.48;;;12.90;99.90;;;;;;5143088;27;20035;-79
2021/05/30 07:13:23;;;;;;;28.63;15.20;;;13.00;99.90;;;;;;5145891;27;20035;-78
2021/05/30 07:15:51;;;;;;;41.67;25.42;;;12.80;99.90;;;;;;5143445;27;20034;-77
2021/05/30 07:18:21;;;;;;;34.72;18.60;;;12.80;99.90;;;;;;5143740;27;20355;-77
2021/05/30 07:20:48;;;;;;;30.45;15.52;;;12.90;99.90;;;;;;5141188;27;20075;-77
2021/05/30 07:23:15;;;;;;;31.40;15.80;;;12.90;99.90;;;;;;5130078;27;20043;-78
2021/05/30 07:25:43;;;;;;;25.63;14.73;;;13.10;99.90;;;;;;5151704;27;20023;-73
2021/05/30 07:28:09;;;;;;;22.30;13.68;;;12.80;99.90;;;;;;5141790;27;20060;-80
2021/05/30 07:30:35;;;;;;;26.92;13.63;;;12.90;99.90;;;;;;5148143;27;20077;-80
2021/05/30 07:33:02;;;;;;;23.55;13.05;;;12.80;99.90;;;;;;5152801;27;20035;-80
2021/05/30 07:35:29;;;;;;;26.20;13.82;;;12.90;99.90;;;;;;5148317;27;20122;-80
2021/05/30 07:37:55;;;;;;;24.02;13.32;;;12.90;99.90;;;;;;5112305;27;20043;-73
2021/05/30 07:40:24;;;;;;;23.75;13.65;;;13.00;99.90;;;;;;5152316;27;20039;-75
2021/05/30 07:42:50;;;;;;;24.40;12.80;;;13.00;99.90;;;;;;5153958;27;20039;-75
2021/05/30 07:45:18;;;;;;;26.23;13.40;;;13.00;99.90;;;;;;5143607;27;20053;-75
2021/05/30 07:47:44;;;;;;;26.55;13.38;;;13.10;99.90;;;;;;5144313;27;20051;-75
2021/05/30 07:50:15;;;;;;;25.98;13.23;;;13.10;99.90;;;;;;5144357;27;20059;-71
2021/05/30 07:52:41;;;;;;;25.55;12.73;;;13.20;99.90;;;;;;5139716;27;20039;-72
2021/05/30 07:55:09;;;;;;;31.33;13.82;;;13.30;99.90;;;;;;5144107;27;20041;-72
2021/05/30 07:57:36;;;;;;;24.23;13.65;;;13.30;99.90;;;;;;5149303;27;20068;-72
2021/05/30 08:00:08;;;;;;;23.05;12.70;;;13.30;99.90;;;;;;5152387;27;20034;-73
2021/05/30 08:02:36;;;;;;;32.25;14.07;;;13.30;99.90;;;;;;5142218;27;20043;-74
2021/05/30 08:05:11;;;;;;;24.55;12.80;;;13.40;99.90;;;;;;5122034;27;20332;-82
2021/05/30 08:07:38;;;;;;;23.83;12.68;;;13.40;99.90;;;;;;5151724;27;20062;-82
2021/05/30 08:10:07;;;;;;;22.08;12.02;;;13.40;99.90;;;;;;5139540;27;20046;-83
2021/05/30 08:12:36;;;;;;;23.33;11.95;;;13.50;99.90;;;;;;5139593;27;20073;-81
2021/05/30 08:15:08;;;;;;;28.95;11.75;;;13.50;99.90;;;;;;5121670;27;20466;-81
2021/05/30 08:17:34;;;;;;;21.65;11.13;;;13.50;99.90;;;;;;5158199;27;20042;-81
2021/05/30 08:20:18;;;;;;;24.73;12.23;;;13.60;99.90;;;;;;5152324;27;20077;-80
2021/05/30 08:22:44;;;;;;;19.40;12.25;;;13.60;99.90;;;;;;5154638;27;20159;-79
2021/05/30 08:25:11;;;;;;;21.58;11.88;;;13.60;99.90;;;;;;5146077;27;20316;-81
2021/05/30 08:27:37;;;;;;;23.95;11.52;;;13.70;99.90;;;;;;5133455;27;20034;-83
2021/05/30 08:30:09;;;;;;;22.65;11.98;;;13.80;99.90;;;;;;5129908;27;20033;-82
2021/05/30 08:32:36;;;;;;;23.58;11.00;;;13.80;99.90;;;;;;5135381;27;20091;-86
2021/05/30 08:35:10;;;;;;;23.10;11.73;;;13.80;99.90;;;;;;5127581;27;20039;-85
2021/05/30 08:37:41;;;;;;;23.92;10.52;;;13.90;99.90;;;;;;5105539;27;20040;-83
2021/05/30 08:40:12;;;;;;;18.33;10.43;;;13.90;99.90;;;;;;5131995;27;20106;-86
2021/05/30 08:42:44;;;;;;;22.77;10.93;;;14.00;99.90;;;;;;5157179;27;20095;-84
2021/05/30 08:45:25;;;;;;;;;;;;;;;;;;;;;
2021/05/30 08:48:06;;;;;;;21.90;11.63;;;14.00;99.90;;;;;;5147974;27;20030;-79
2021/05/30 08:50:32;;;;;;;24.63;12.13;;;14.10;99.90;;;;;;5138697;27;20053;-80
2021/05/30 08:52:59;;;;;;;20.70;10.32;;;14.10;99.90;;;;;;5138888;27;20461;-78
2021/05/30 08:55:25;;;;;;;20.70;9.88;;;14.00;99.90;;;;;;5137477;27;20066;-76
2021/05/30 08:57:56;;;;;;;21.25;9.13;;;14.10;99.90;;;;;;5145330;27;20498;-82
2021/05/30 09:00:27;;;;;;;23.25;9.00;;;14.10;99.90;;;;;;5144109;27;20051;-77
2021/05/30 09:03:13;;;;;;;19.50;9.25;;;14.30;99.90;;;;;;5126420;27;20398;-77
2021/05/30 09:05:39;;;;;;;22.83;9.75;;;14.20;99.90;;;;;;5151573;27;20117;-76
2021/05/30 09:08:05;;;;;;;21.38;8.90;;;14.20;99.90;;;;;;5154175;27;20401;-76
2021/05/30 09:10:32;;;;;;;18.15;9.77;;;14.20;99.90;;;;;;5145069;27;20031;-77
2021/05/30 09:13:16;;;;;;;19.38;8.80;;;14.30;99.90;;;;;;5156103;27;20031;-78
2021/05/30 09:18:21;;;;;;;20.80;8.55;;;14.40;99.90;;;;;;5125964;27;20054;-77
2021/05/30 09:20:57;;;;;;;17.15;8.55;;;14.30;99.90;;;;;;5148377;27;20045;-76
2021/05/30 09:23:43;;;;;;;23.33;9.77;;;14.40;99.90;;;;;;5142132;27;20039;-76
2021/05/30 09:26:14;;;;;;;24.58;8.68;;;14.40;99.90;;;;;;5127907;27;20042;-71
2021/05/30 09:29:00;;;;;;;17.10;8.00;;;14.40;99.90;;;;;;5156516;27;20570;-83
2021/05/30 09:31:27;;;;;;;17.27;8.48;;;14.50;99.90;;;;;;5145947;27;20031;-82
2021/05/30 09:33:52;;;;;;;19.35;8.38;;;14.50;99.90;;;;;;5117217;27;20403;-82
2021/05/30 09:36:21;;;;;;;18.13;8.20;;;15.10;99.90;;;;;;5117307;27;20043;-82
2021/05/30 09:39:01;;;;;;;15.40;7.38;;;14.70;99.90;;;;;;5133395;27;20035;-82
2021/05/30 09:41:30;;;;;;;18.77;8.00;;;14.70;99.90;;;;;;5148353;27;20485;-83
2021/05/30 09:44:10;;;;;;;17.10;7.97;;;14.80;99.90;;;;;;5118996;27;20489;-83
2021/05/30 09:46:40;;;;;;;20.55;8.20;;;14.80;99.90;;;;;;5111607;27;20039;-80
2021/05/30 09:49:06;;;;;;;12.13;7.00;;;14.80;99.90;;;;;;5136901;27;20035;-76
2021/05/30 09:51:53;;;;;;;17.52;7.90;;;14.90;99.90;;;;;;5136947;27;20038;-83
2021/05/30 09:58:28;;;;;;;14.82;7.78;;;15.00;99.90;;;;;;5152086;27;20042;-84
2021/05/30 10:01:00;;;;;;;16.35;7.70;;;15.10;99.90;;;;;;5062523;27;20098;-79
2021/05/30 10:03:36;;;;;;;16.05;6.68;;;15.10;99.90;;;;;;5133965;27;20039;-83
2021/05/30 10:06:08;;;;;;;19.33;7.50;;;15.20;99.90;;;;;;5095182;27;20496;-84
2021/05/30 10:08:44;;;;;;;15.02;6.90;;;15.10;99.90;;;;;;5154872;27;20050;-84
2021/05/30 10:11:20;;;;;;;18.15;6.97;;;15.20;99.90;;;;;;5119665;27;20050;-84
2021/05/30 10:13:50;;;;;;;12.90;6.20;;;15.10;99.90;;;;;;5120233;27;20482;-84
2021/05/30 10:16:17;;;;;;;12.73;6.63;;;15.20;99.90;;;;;;5120258;27;20047;-84
2021/05/30 10:18:52;;;;;;;16.65;6.88;;;15.30;99.90;;;;;;5155082;27;20037;-84
2021/05/30 10:21:22;;;;;;;17.08;7.40;;;15.30;99.90;;;;;;5135423;27;20043;-84
2021/05/30 10:23:59;;;;;;;17.13;6.85;;;15.20;99.90;;;;;;5128407;27;20037;-84
2021/05/30 10:26:33;;;;;;;18.73;6.97;;;15.20;99.90;;;;;;5123371;27;20043;-84
2021/05/30 10:29:15;;;;;;;18.58;7.32;;;15.40;99.90;;;;;;5128924;27;20110;-84
2021/05/30 10:32:15;;;;;;;20.08;6.97;;;15.30;99.90;;;;;;5107091;27;20498;-84
2021/05/30 10:35:10;;;;;;;14.90;6.50;;;15.40;99.90;;;;;;5125477;27;20049;-87
2021/05/30 10:37:42;;;;;;;15.75;6.00;;;15.40;99.90;;;;;;5115326;27;20049;-85
2021/05/30 10:40:21;;;;;;;15.60;6.88;;;15.30;99.90;;;;;;5130934;27;20109;-76
2021/05/30 10:43:08;;;;;;;14.75;6.80;;;15.50;99.90;;;;;;5147615;27;20031;-77
2021/05/30 10:45:58;;;;;;;18.13;7.53;;;15.30;99.90;;;;;;5118869;27;20184;-77
2021/05/30 10:48:24;;;;;;;15.30;6.80;;;15.50;99.90;;;;;;5147096;27;20495;-77
2021/05/30 10:51:03;;;;;;;17.67;6.55;;;15.50;99.90;;;;;;5136319;27;20054;-77
2021/05/30 10:53:36;;;;;;;17.45;6.93;;;15.60;99.90;;;;;;5140051;27;20035;-77
2021/05/30 10:56:23;;;;;;;13.15;6.47;;;15.60;99.90;;;;;;5152562;27;20115;-77
2021/05/30 10:59:06;;;;;;;16.92;6.07;;;15.70;99.90;;;;;;5144859;27;20031;-76
2021/05/30 11:01:43;;;;;;;17.63;6.38;;;15.70;99.90;;;;;;5121757;27;20080;-77
2021/05/30 11:07:08;;;;;;;19.20;6.57;;;15.70;99.90;;;;;;5140825;27;20042;-77
2021/05/30 11:09:49;;;;;;;13.65;5.95;;;15.80;99.90;;;;;;5154438;27;20129;-77
2021/05/30 11:12:26;;;;;;;13.43;6.95;;;15.80;99.90;;;;;;5136097;27;20315;-77
2021/05/30 11:15:14;;;;;;;19.48;7.63;;;15.90;99.90;;;;;;5135019;27;20398;-77
2021/05/30 11:17:49;;;;;;;10.82;6.18;;;15.90;99.90;;;;;;5121796;27;20482;-77
2021/05/30 11:20:19;;;;;;;13.13;6.25;;;15.90;99.90;;;;;;5148302;27;20034;-79
2021/05/30 11:22:56;;;;;;;15.77;7.35;;;15.90;99.90;;;;;;5145239;27;20038;-79
2021/05/30 11:25:36;;;;;;;19.20;7.72;;;16.00;99.90;;;;;;5139651;27;20050;-79
2021/05/30 11:28:04;;;;;;;16.60;6.78;;;16.10;99.90;;;;;;5154145;27;20035;-79
2021/05/30 11:31:01;;;;;;;19.58;7.70;;;16.10;99.90;;;;;;5152959;27;20114;-79
2021/05/30 11:33:30;;;;;;;15.88;7.10;;;16.20;99.90;;;;;;5134032;27;20129;-77
2021/05/30 11:35:58;;;;;;;19.05;7.75;;;16.20;99.90;;;;;;5120308;27;20054;-75
2021/05/30 11:38:37;;;;;;;16.90;7.50;;;16.30;99.90;;;;;;5147865;27;20042;-76
2021/05/30 11:41:10;;;;;;;15.52;7.15;;;16.40;99.90;;;;;;5150422;27;20039;-75
2021/05/30 11:43:36;;;;;;;18.98;8.13;;;16.40;99.90;;;;;;5148916;27;20042;-75
2021/05/30 11:46:15;;;;;;;19.17;7.88;;;16.50;99.90;;;;;;5147427;27;20501;-75
2021/05/30 11:49:15;;;;;;;23.50;8.68;;;16.60;99.90;;;;;;5152680;27;20037;-75
2021/05/30 11:51:47;;;;;;;18.70;8.25;;;16.60;99.90;;;;;;5129607;27;20030;-75
2021/05/30 11:54:13;;;;;;;17.05;8.55;;;16.50;99.90;;;;;;5135189;27;20031;-79
2021/05/30 11:56:43;;;;;;;15.77;8.50;;;16.60;99.90;;;;;;5126043;27;20066;-79
2021/05/30 11:59:10;;;;;;;18.55;8.48;;;16.60;99.90;;;;;;5140340;27;20039;-79
2021/05/30 12:01:51;;;;;;;21.85;8.27;;;16.50;99.90;;;;;;5111032;28;20371;-79
2021/05/30 12:04:23;;;;;;;15.98;7.97;;;16.60;99.90;;;;;;5147060;27;20050;-78
2021/05/30 12:06:49;;;;;;;22.50;8.80;;;16.70;99.90;;;;;;5152239;27;20110;-78
2021/05/30 12:09:16;;;;;;;20.58;9.25;;;16.70;99.90;;;;;;5114984;28;20042;-78
2021/05/30 12:11:45;;;;;;;18.88;8.70;;;16.70;99.90;;;;;;5149950;27;20522;-78
2021/05/30 12:14:11;;;;;;;20.30;8.68;;;16.70;99.90;;;;;;5153734;27;20158;-78
2021/05/30 12:16:37;;;;;;;15.00;8.40;;;16.60;99.90;;;;;;5153729;27;20035;-78
2021/05/30 12:19:05;;;;;;;18.08;8.98;;;16.70;99.90;;;;;;5153933;27;20459;-78
2021/05/30 12:21:45;;;;;;;22.33;9.05;;;16.60;99.90;;;;;;5147637;27;20039;-78
2021/05/30 12:24:16;;;;;;;20.98;9.07;;;16.60;99.90;;;;;;5142279;27;20048;-79
2021/05/30 12:26:44;;;;;;;17.92;8.27;;;16.60;99.90;;;;;;5135380;27;20486;-79
2021/05/30 12:29:10;;;;;;;18.23;9.75;;;16.60;99.90;;;;;;5152861;27;20055;-79
2021/05/30 12:31:38;;;;;;;18.63;8.85;;;16.60;99.90;;;;;;5148532;27;20062;-79
2021/05/30 12:34:06;;;;;;;18.08;8.52;;;16.60;99.90;;;;;;5121592;27;20386;-79
2021/05/30 12:36:32;;;;;;;18.67;7.95;;;16.60;99.90;;;;;;5151323;27;20051;-73
2021/05/30 12:39:05;;;;;;;14.05;7.25;;;16.60;99.90;;;;;;5130056;28;20046;-86
2021/05/30 12:42:19;;;;;;;17.13;8.30;;;16.60;99.90;;;;;;5114763;28;20382;-86
2021/05/30 12:45:06;;;;;;;16.70;7.78;;;16.60;99.90;;;;;;5106360;28;20130;-86
2021/05/30 12:48:13;;;;;;;;;;;;;;;;;;;;;
2021/05/30 12:51:30;;;;;;;16.02;7.55;;;16.70;99.90;;;;;;5152950;27;20030;-86
2021/05/30 12:54:23;;;;;;;16.77;8.65;;;16.70;99.90;;;;;;5115138;27;20488;-86
2021/05/30 12:56:56;;;;;;;17.70;8.25;;;16.70;99.90;;;;;;5106884;27;20490;-86
2021/05/30 12:59:33;;;;;;;21.13;7.95;;;16.60;99.90;;;;;;5132984;27;20042;-86
2021/05/30 13:02:24;;;;;;;18.08;7.85;;;16.60;99.90;;;;;;5139458;27;20035;-86
2021/05/30 13:05:16;;;;;;;;;;;;;;;;;;;;;